createdAt,value
2019-05-16T00:01:38.449Z,72.70
2019-05-16T00:04:08.772Z,71.90
2019-05-16T00:06:39.124Z,70.80
2019-05-16T00:09:08.132Z,71.00
2019-05-16T00:11:38.437Z,71.00
2019-05-16T00:14:08.380Z,70.60
2019-05-16T00:16:38.000Z,70.80
2019-05-16T00:19:09.101Z,71.20
2019-05-16T00:21:38.269Z,71.50
2019-05-16T00:24:08.291Z,72.40
2019-05-16T00:26:38.885Z,72.60
2019-05-16T00:29:08.062Z,73.30
2019-05-16T00:31:38.281Z,74.30
2019-05-16T00:34:09.388Z,75.70
2019-05-16T00:36:38.262Z,76.60
2019-05-16T00:39:08.347Z,76.60
2019-05-16T00:41:38.601Z,77.50
2019-05-16T00:44:08.448Z,78.00
2019-05-16T00:46:38.589Z,77.70
2019-05-16T00:49:08.263Z,76.50
2019-05-16T00:51:37.747Z,76.10
2019-05-16T00:54:08.265Z,75.90
2019-05-16T00:56:38.420Z,75.40
2019-05-16T00:59:08.249Z,75.00
2019-05-16T01:01:38.851Z,74.90
2019-05-16T01:04:08.098Z,74.50
2019-05-16T01:06:38.085Z,75.70
2019-05-16T01:09:08.675Z,76.80
2019-05-16T01:11:38.206Z,78.10
2019-05-16T01:14:08.452Z,77.40
2019-05-16T01:16:38.211Z,76.60
2019-05-16T01:19:08.469Z,75.60
2019-05-16T01:21:39.126Z,75.00
2019-05-16T01:24:08.219Z,74.30
2019-05-16T01:26:39.033Z,73.90
2019-05-16T01:29:08.541Z,73.40
2019-05-16T01:31:38.004Z,72.30
2019-05-16T01:34:07.794Z,71.50
2019-05-16T01:36:39.947Z,71.90
2019-05-16T01:39:07.970Z,72.60
2019-05-16T01:41:38.221Z,73.80
2019-05-16T01:44:07.835Z,74.50
2019-05-16T01:46:38.877Z,75.10
2019-05-16T01:49:08.214Z,74.70
2019-05-16T01:51:38.026Z,75.40
2019-05-16T01:54:08.677Z,74.80
2019-05-16T01:56:38.783Z,75.00
2019-05-16T01:59:08.844Z,75.00
2019-05-16T02:01:37.871Z,74.90
2019-05-16T02:04:11.860Z,75.10
2019-05-16T02:06:48.304Z,76.00
2019-05-16T02:09:11.472Z,75.90
2019-05-16T02:11:39.515Z,75.80
2019-05-16T02:14:09.562Z,76.20
2019-05-16T02:16:38.550Z,75.70
2019-05-16T02:19:08.221Z,76.30
2019-05-16T02:21:38.838Z,74.80
2019-05-16T02:24:08.826Z,73.40
2019-05-16T02:26:38.646Z,74.00
2019-05-16T02:29:10.286Z,74.20
2019-05-16T02:31:37.937Z,76.60
2019-05-16T02:34:06.762Z,73.60
2019-05-16T02:36:35.516Z,72.20
2019-05-16T02:39:05.902Z,73.20
2019-05-16T02:41:34.718Z,72.50
2019-05-16T02:44:04.450Z,71.70
2019-05-16T02:46:33.253Z,72.40
2019-05-16T02:49:02.031Z,73.10
2019-05-16T02:51:31.472Z,74.60
2019-05-16T02:54:01.367Z,73.70
2019-05-16T02:56:31.741Z,73.40
2019-05-16T02:59:01.730Z,71.60
2019-05-16T03:01:31.711Z,71.60
2019-05-16T03:04:01.710Z,71.60
2019-05-16T03:06:32.220Z,73.20
2019-05-16T03:09:05.445Z,99.90
2019-05-16T03:11:35.565Z,99.90
2019-05-16T03:14:05.949Z,99.90
2019-05-16T03:16:36.259Z,99.90
2019-05-16T03:19:05.168Z,99.90
2019-05-16T03:21:35.215Z,99.90
2019-05-16T03:24:04.132Z,99.90
2019-05-16T03:26:32.947Z,99.90
2019-05-16T03:29:01.699Z,99.90
2019-05-16T03:31:34.260Z,99.90
2019-05-16T03:34:07.046Z,99.90
2019-05-16T03:36:34.442Z,99.90
2019-05-16T03:39:01.672Z,99.90
2019-05-16T03:41:30.968Z,99.90
2019-05-16T03:44:01.366Z,99.90
2019-05-16T03:46:30.889Z,99.90
2019-05-16T03:49:02.452Z,99.90
2019-05-16T03:51:30.968Z,99.90
2019-05-16T03:54:02.639Z,99.90
2019-05-16T03:56:30.708Z,99.90
2019-05-16T03:59:01.157Z,99.90
2019-05-16T04:01:31.255Z,99.90
2019-05-16T04:04:01.654Z,99.90
2019-05-16T04:06:31.246Z,99.90
2019-05-16T04:09:01.506Z,99.90
2019-05-16T04:11:32.154Z,99.90
2019-05-16T04:14:01.603Z,99.90
2019-05-16T04:16:31.389Z,99.90
2019-05-16T04:19:01.973Z,99.90
2019-05-16T04:21:32.415Z,99.90
2019-05-16T04:24:01.398Z,99.90
2019-05-16T04:26:30.913Z,99.90
2019-05-16T04:29:00.887Z,99.90
2019-05-16T04:31:30.767Z,99.90
2019-05-16T04:34:01.131Z,99.90
2019-05-16T04:36:32.734Z,99.90
2019-05-16T04:39:01.904Z,99.90
2019-05-16T04:41:31.319Z,99.90
2019-05-16T04:44:04.347Z,99.90
2019-05-16T04:46:31.556Z,99.90
2019-05-16T04:49:01.695Z,99.90
2019-05-16T04:51:30.851Z,99.90
2019-05-16T04:54:02.435Z,99.90
2019-05-16T04:56:30.889Z,99.90
2019-05-16T04:59:00.517Z,99.90
2019-05-16T05:01:30.702Z,99.90
2019-05-16T05:04:09.107Z,99.90
2019-05-16T05:06:31.230Z,99.90
2019-05-16T05:09:03.544Z,99.90
2019-05-16T05:11:30.822Z,99.90
2019-05-16T05:14:00.935Z,99.90
2019-05-16T05:16:30.640Z,99.90
2019-05-16T05:19:00.350Z,99.90
2019-05-16T05:21:31.369Z,99.90
2019-05-16T05:24:00.067Z,99.90
2019-05-16T05:26:30.586Z,99.90
2019-05-16T05:28:59.837Z,99.90
2019-05-16T05:31:34.457Z,99.90
2019-05-16T05:34:01.228Z,99.90
2019-05-16T05:36:30.083Z,99.90
2019-05-16T05:39:10.919Z,99.90
2019-05-16T05:41:32.387Z,99.90
2019-05-16T05:44:01.155Z,99.90
2019-05-16T05:46:31.700Z,99.90
2019-05-16T05:49:00.302Z,99.90
2019-05-16T05:51:30.107Z,99.90
2019-05-16T05:54:00.163Z,99.90
2019-05-16T05:56:30.492Z,99.90
2019-05-16T05:59:01.578Z,99.90
2019-05-16T06:01:31.468Z,99.90
2019-05-16T06:04:00.408Z,99.90
2019-05-16T06:06:30.380Z,99.90
2019-05-16T06:09:00.682Z,99.90
2019-05-16T06:11:30.774Z,99.90
2019-05-16T06:14:00.424Z,99.90
2019-05-16T06:16:30.851Z,99.90
2019-05-16T06:19:00.942Z,99.90
2019-05-16T06:21:33.429Z,99.90
2019-05-16T06:24:00.242Z,99.90
2019-05-16T06:26:30.290Z,99.90
2019-05-16T06:29:00.657Z,99.90
2019-05-16T06:31:31.293Z,99.90
2019-05-16T06:34:07.977Z,99.90
2019-05-16T06:36:30.824Z,99.90
2019-05-16T06:39:00.245Z,99.90
2019-05-16T06:41:30.438Z,99.90
2019-05-16T06:43:59.914Z,99.90
2019-05-16T06:46:30.688Z,99.90
2019-05-16T06:48:59.749Z,99.90
2019-05-16T06:51:30.584Z,99.90
2019-05-16T06:54:00.498Z,99.90
2019-05-16T06:56:30.882Z,99.90
2019-05-16T06:59:00.890Z,99.90
2019-05-16T07:01:29.875Z,99.90
2019-05-16T07:04:00.087Z,99.90
2019-05-16T07:06:48.476Z,99.90
2019-05-16T07:09:01.076Z,99.90
2019-05-16T07:11:30.616Z,99.90
2019-05-16T07:14:00.597Z,99.90
2019-05-16T07:16:29.988Z,99.90
2019-05-16T07:19:00.834Z,99.90
2019-05-16T07:21:31.259Z,99.90
2019-05-16T07:24:00.206Z,99.90
2019-05-16T07:26:30.920Z,99.90
2019-05-16T07:29:00.346Z,99.90
2019-05-16T07:31:30.068Z,99.90
2019-05-16T07:34:00.796Z,99.90
2019-05-16T07:36:31.490Z,99.90
2019-05-16T07:39:00.000Z,99.90
2019-05-16T07:41:31.077Z,99.90
2019-05-16T07:44:00.974Z,99.90
2019-05-16T07:46:31.585Z,99.90
2019-05-16T07:49:01.184Z,99.90
2019-05-16T07:51:31.015Z,99.90
2019-05-16T07:54:00.002Z,99.90
2019-05-16T07:56:31.019Z,99.90
2019-05-16T07:59:00.889Z,99.90
2019-05-16T08:01:30.712Z,99.90
2019-05-16T08:04:00.105Z,99.90
2019-05-16T08:06:33.668Z,99.90
2019-05-16T08:09:00.233Z,99.90
2019-05-16T08:11:30.371Z,99.90
2019-05-16T08:14:00.973Z,99.90
2019-05-16T08:16:30.567Z,99.90
2019-05-16T08:19:00.887Z,99.90
2019-05-16T08:21:30.933Z,99.90
2019-05-16T08:24:06.435Z,99.90
2019-05-16T08:26:32.382Z,99.90
2019-05-16T08:29:01.954Z,99.90
2019-05-16T08:31:31.777Z,99.90
2019-05-16T08:34:01.130Z,99.90
2019-05-16T08:36:31.325Z,99.90
2019-05-16T08:39:01.095Z,99.90
2019-05-16T08:41:31.519Z,99.90
2019-05-16T08:44:01.266Z,99.90
2019-05-16T08:46:32.287Z,99.90
2019-05-16T08:49:01.382Z,99.90
2019-05-16T08:51:33.172Z,99.90
2019-05-16T08:54:01.704Z,99.90
2019-05-16T08:56:31.787Z,99.90
2019-05-16T08:59:02.411Z,99.90
2019-05-16T09:01:34.935Z,99.90
2019-05-16T09:04:01.978Z,99.90
2019-05-16T09:06:32.351Z,99.90
2019-05-16T09:09:15.645Z,99.90
2019-05-16T09:11:41.371Z,99.90
2019-05-16T09:14:02.068Z,99.90
2019-05-16T09:16:30.937Z,99.90
2019-05-16T09:18:59.693Z,99.90
2019-05-16T09:21:28.551Z,99.90
2019-05-16T09:23:57.920Z,99.90
2019-05-16T09:26:27.848Z,99.90
2019-05-16T09:28:57.204Z,99.90
2019-05-16T09:31:27.537Z,99.90
2019-05-16T09:33:56.833Z,99.90
2019-05-16T09:36:28.032Z,99.90
2019-05-16T09:38:57.738Z,99.90
2019-05-16T09:41:32.128Z,99.90
2019-05-16T09:43:58.900Z,99.90
2019-05-16T09:46:27.734Z,99.90
2019-05-16T09:49:15.841Z,99.90
2019-05-16T09:51:27.350Z,99.90
2019-05-16T09:53:56.682Z,99.90
2019-05-16T09:56:27.027Z,99.90
2019-05-16T09:58:57.425Z,99.90
2019-05-16T10:01:27.646Z,99.90
2019-05-16T10:03:56.643Z,99.90
2019-05-16T10:06:27.560Z,99.90
2019-05-16T10:08:56.926Z,99.90
2019-05-16T10:11:31.155Z,99.90
2019-05-16T10:13:56.440Z,99.90
2019-05-16T10:16:27.456Z,99.90
2019-05-16T10:18:56.803Z,99.90
2019-05-16T10:21:27.174Z,99.90
2019-05-16T10:23:56.511Z,99.90
2019-05-16T10:26:27.801Z,99.90
2019-05-16T10:28:57.816Z,99.90
2019-05-16T10:31:40.993Z,99.90
2019-05-16T10:33:57.944Z,99.90
2019-05-16T10:36:28.100Z,99.90
2019-05-16T10:38:59.052Z,99.90
2019-05-16T10:41:27.703Z,99.90
2019-05-16T10:43:56.804Z,99.90
2019-05-16T10:46:26.972Z,99.90
2019-05-16T10:48:57.809Z,99.90
2019-05-16T10:51:26.996Z,99.90
2019-05-16T10:54:09.123Z,99.90
2019-05-16T10:56:26.432Z,99.90
2019-05-16T10:59:26.070Z,99.90
2019-05-16T11:01:28.717Z,99.90
2019-05-16T11:03:56.804Z,99.90
2019-05-16T11:06:29.163Z,99.90
2019-05-16T11:08:57.182Z,99.90
2019-05-16T11:11:27.397Z,99.90
2019-05-16T11:13:56.162Z,99.90
2019-05-16T11:16:27.531Z,99.90
2019-05-16T11:18:55.465Z,99.90
2019-05-16T11:21:26.570Z,99.90
2019-05-16T11:23:56.555Z,99.90
2019-05-16T11:26:27.606Z,99.90
2019-05-16T11:28:56.733Z,99.90
2019-05-16T11:31:26.687Z,99.90
2019-05-16T11:33:57.493Z,99.90
2019-05-16T11:36:26.826Z,99.90
2019-05-16T11:39:01.049Z,99.90
2019-05-16T11:41:27.473Z,99.90
2019-05-16T11:43:56.923Z,99.90
2019-05-16T11:46:28.055Z,99.90
2019-05-16T11:48:56.976Z,99.90
2019-05-16T11:51:27.261Z,99.90
2019-05-16T11:53:59.998Z,99.90
2019-05-16T11:56:26.707Z,99.90
2019-05-16T11:58:57.055Z,99.90
2019-05-16T12:01:27.585Z,99.90
2019-05-16T12:03:57.562Z,99.90
2019-05-16T12:06:26.990Z,99.90
2019-05-16T12:08:55.974Z,99.90
2019-05-16T12:11:27.230Z,99.90
2019-05-16T12:13:56.702Z,99.90
2019-05-16T12:16:27.495Z,99.90
2019-05-16T12:18:57.162Z,99.90
2019-05-16T12:21:27.489Z,99.90
2019-05-16T12:23:56.415Z,99.90
2019-05-16T12:26:27.952Z,99.90
2019-05-16T12:28:57.337Z,99.90
2019-05-16T12:31:26.319Z,99.90
2019-05-16T12:33:59.405Z,99.90
2019-05-16T12:36:26.813Z,99.90
2019-05-16T12:38:57.493Z,99.90
2019-05-16T12:41:28.719Z,99.90
2019-05-16T12:43:57.903Z,99.90
2019-05-16T12:46:27.263Z,99.90
2019-05-16T12:48:57.608Z,99.90
2019-05-16T12:51:26.655Z,99.90
2019-05-16T12:53:57.210Z,99.90
2019-05-16T12:56:27.124Z,99.90
2019-05-16T12:58:56.205Z,99.90
2019-05-16T13:01:30.474Z,99.90
2019-05-16T13:03:55.606Z,99.90
2019-05-16T13:06:24.437Z,99.90
2019-05-16T13:08:53.640Z,99.90
2019-05-16T13:11:22.642Z,99.90
2019-05-16T13:14:05.537Z,99.90
2019-05-16T13:16:21.764Z,99.90
2019-05-16T13:18:50.601Z,99.90
2019-05-16T13:21:22.845Z,99.90
2019-05-16T13:23:50.334Z,99.90
2019-05-16T13:26:19.255Z,99.90
2019-05-16T13:28:48.186Z,99.90
2019-05-16T13:31:17.313Z,99.90
2019-05-16T13:33:46.319Z,99.90
2019-05-16T13:36:17.427Z,99.90
2019-05-16T13:38:48.108Z,99.90
2019-05-16T13:41:18.287Z,99.90
2019-05-16T13:43:46.674Z,99.90
2019-05-16T13:46:17.168Z,99.90
2019-05-16T13:48:46.233Z,99.90
2019-05-16T13:51:16.774Z,99.90
2019-05-16T13:53:47.221Z,99.90
2019-05-16T13:56:17.660Z,99.90
2019-05-16T13:58:47.898Z,99.90
2019-05-16T14:01:36.807Z,99.90
2019-05-16T14:04:08.949Z,99.90
2019-05-16T14:06:36.672Z,99.90
2019-05-16T14:09:11.570Z,99.90
2019-05-16T14:11:40.528Z,99.90
2019-05-16T14:14:09.369Z,99.90
2019-05-16T14:16:38.351Z,99.90
2019-05-16T14:19:07.589Z,99.90
2019-05-16T14:21:36.537Z,99.90
2019-05-16T14:24:08.693Z,99.90
2019-05-16T14:26:38.400Z,99.90
2019-05-16T14:29:08.095Z,99.90
2019-05-16T14:31:37.604Z,99.90
2019-05-16T14:34:06.791Z,99.90
2019-05-16T14:36:37.499Z,99.90
2019-05-16T14:39:09.308Z,99.90
2019-05-16T14:41:38.328Z,99.90
2019-05-16T14:44:09.282Z,99.90
2019-05-16T14:46:38.541Z,99.90
2019-05-16T14:49:07.850Z,99.90
2019-05-16T14:51:38.608Z,99.90
2019-05-16T14:54:07.807Z,99.90
2019-05-16T14:56:38.802Z,99.90
2019-05-16T14:59:08.365Z,99.90
2019-05-16T15:01:37.946Z,99.90
2019-05-16T15:04:07.441Z,99.90
2019-05-16T15:06:37.616Z,99.90
2019-05-16T15:09:08.820Z,99.90
2019-05-16T15:11:37.966Z,99.90
2019-05-16T15:14:07.230Z,99.90
2019-05-16T15:16:36.303Z,99.90
2019-05-16T15:19:07.922Z,99.90
2019-05-16T15:21:35.884Z,99.90
2019-05-16T15:24:06.918Z,99.90
2019-05-16T15:26:37.511Z,99.90
2019-05-16T15:29:08.097Z,99.90
2019-05-16T15:31:39.506Z,99.90
2019-05-16T15:34:07.975Z,99.90
2019-05-16T15:36:37.263Z,99.90
2019-05-16T15:39:08.188Z,99.90
2019-05-16T15:41:37.179Z,99.90
2019-05-16T15:44:07.789Z,99.90
2019-05-16T15:46:37.043Z,99.90
2019-05-16T15:49:09.664Z,99.90
2019-05-16T15:51:36.971Z,99.90
2019-05-16T15:54:06.723Z,99.90
2019-05-16T15:56:37.450Z,99.90
2019-05-16T15:59:09.897Z,99.90
2019-05-16T16:01:37.933Z,99.90
2019-05-16T16:04:07.059Z,99.90
2019-05-16T16:06:38.001Z,99.90
2019-05-16T16:09:07.376Z,99.90
2019-05-16T16:11:37.416Z,99.90
2019-05-16T16:14:06.961Z,99.90
2019-05-16T16:16:36.204Z,99.90
2019-05-16T16:19:06.567Z,99.90
2019-05-16T16:21:37.918Z,99.90
2019-05-16T16:24:09.085Z,99.90
2019-05-16T16:26:38.192Z,99.90
2019-05-16T16:29:07.410Z,99.90
2019-05-16T16:31:36.876Z,99.90
2019-05-16T16:34:07.530Z,99.90
2019-05-16T16:36:36.792Z,99.90
2019-05-16T16:39:08.731Z,99.90
2019-05-16T16:41:37.614Z,99.90
2019-05-16T16:44:07.695Z,99.90
2019-05-16T16:46:38.869Z,99.90
2019-05-16T16:49:07.736Z,99.90
2019-05-16T16:51:37.432Z,99.90
2019-05-16T16:54:07.630Z,99.90
2019-05-16T16:56:37.150Z,99.90
2019-05-16T16:59:06.524Z,99.90
2019-05-16T17:01:37.376Z,99.90
2019-05-16T17:04:06.570Z,99.90
2019-05-16T17:06:37.476Z,99.90
2019-05-16T17:09:07.490Z,99.90
2019-05-16T17:11:37.042Z,99.90
2019-05-16T17:14:06.930Z,99.90
2019-05-16T17:16:37.744Z,99.90
2019-05-16T17:19:07.636Z,99.90
2019-05-16T17:21:36.901Z,99.90
2019-05-16T17:24:06.421Z,99.90
2019-05-16T17:26:37.659Z,99.90
2019-05-16T17:29:06.518Z,99.90
2019-05-16T17:31:35.464Z,99.90
2019-05-16T17:34:04.318Z,99.90
2019-05-16T17:36:33.059Z,99.90
2019-05-16T17:39:01.840Z,99.90
2019-05-16T17:41:30.667Z,99.90
2019-05-16T17:43:59.348Z,99.90
2019-05-16T17:46:37.241Z,99.90
2019-05-16T17:48:58.493Z,99.90
2019-05-16T17:51:27.234Z,99.90
2019-05-16T17:53:57.100Z,99.90
2019-05-16T17:56:26.422Z,99.90
2019-05-16T17:58:56.945Z,99.90
2019-05-16T18:01:27.403Z,99.90
2019-05-16T18:03:57.248Z,99.90
2019-05-16T18:06:27.177Z,99.90
2019-05-16T18:08:57.166Z,99.90
2019-05-16T18:11:26.731Z,99.90
2019-05-16T18:13:57.065Z,99.90
2019-05-16T18:16:26.186Z,99.90
2019-05-16T18:18:57.336Z,99.90
2019-05-16T18:21:25.495Z,99.90
2019-05-16T18:23:54.393Z,99.90
2019-05-16T18:26:23.316Z,99.90
2019-05-16T18:28:52.225Z,99.90
2019-05-16T18:31:21.064Z,99.90
2019-05-16T18:33:49.883Z,99.90
2019-05-16T18:36:18.700Z,99.90
2019-05-16T18:38:47.721Z,99.90
2019-05-16T18:41:17.735Z,99.90
2019-05-16T18:43:47.227Z,99.90
2019-05-16T18:46:16.314Z,99.90
2019-05-16T18:48:47.175Z,99.90
2019-05-16T18:51:15.811Z,99.90
2019-05-16T18:53:46.515Z,99.90
2019-05-16T18:56:16.792Z,99.90
2019-05-16T18:58:50.399Z,99.90
2019-05-16T19:01:19.110Z,99.90
2019-05-16T19:03:48.989Z,99.90
2019-05-16T19:06:18.044Z,99.90
2019-05-16T19:08:46.888Z,99.90
2019-05-16T19:11:17.538Z,99.90
2019-05-16T19:13:47.493Z,99.90
2019-05-16T19:16:16.999Z,99.90
2019-05-16T19:18:46.122Z,99.90
2019-05-16T19:21:16.844Z,99.90
2019-05-16T19:23:45.574Z,99.90
2019-05-16T19:26:16.531Z,99.90
2019-05-16T19:28:46.705Z,99.90
2019-05-16T19:31:17.168Z,99.90
2019-05-16T19:33:48.593Z,99.90
2019-05-16T19:36:16.639Z,99.90
2019-05-16T19:38:46.614Z,99.90
2019-05-16T19:41:15.682Z,99.90
2019-05-16T19:43:46.524Z,99.90
2019-05-16T19:46:16.809Z,99.90
2019-05-16T19:48:46.470Z,99.90
2019-05-16T19:51:16.345Z,99.90
2019-05-16T19:53:47.073Z,99.90
2019-05-16T19:56:17.734Z,99.90
2019-05-16T19:58:46.834Z,99.90
2019-05-16T20:01:16.824Z,99.90
2019-05-16T20:03:47.157Z,99.90
2019-05-16T20:06:17.799Z,99.90
2019-05-16T20:08:46.617Z,99.90
2019-05-16T20:11:16.881Z,99.90
2019-05-16T20:13:47.382Z,99.90
2019-05-16T20:16:18.303Z,99.90
2019-05-16T20:18:46.810Z,99.90
2019-05-16T20:21:16.474Z,99.90
2019-05-16T20:23:47.315Z,99.90
2019-05-16T20:26:16.870Z,99.90
2019-05-16T20:28:47.488Z,99.90
2019-05-16T20:31:17.989Z,99.90
2019-05-16T20:33:47.013Z,99.90
2019-05-16T20:36:17.330Z,99.90
2019-05-16T20:38:46.623Z,99.90
2019-05-16T20:41:17.134Z,99.90
2019-05-16T20:43:47.461Z,99.90
2019-05-16T20:46:16.881Z,99.90
2019-05-16T20:48:45.974Z,99.90
2019-05-16T20:51:16.529Z,99.90
2019-05-16T20:53:49.387Z,99.90
2019-05-16T20:56:17.130Z,99.90
2019-05-16T20:58:46.725Z,99.90
2019-05-16T21:01:17.319Z,99.90
2019-05-16T21:03:46.749Z,99.90
2019-05-16T21:06:17.251Z,99.90
2019-05-16T21:08:46.257Z,99.90
2019-05-16T21:11:17.182Z,99.90
2019-05-16T21:13:48.713Z,99.90
2019-05-16T21:16:16.950Z,99.90
2019-05-16T21:18:46.994Z,99.90
2019-05-16T21:21:16.645Z,99.90
2019-05-16T21:23:47.012Z,99.90
2019-05-16T21:26:16.205Z,99.90
2019-05-16T21:28:46.293Z,99.90
2019-05-16T21:31:16.398Z,99.90
2019-05-16T21:33:47.060Z,99.90
2019-05-16T21:36:19.010Z,99.90
2019-05-16T21:38:46.987Z,99.90
2019-05-16T21:41:16.795Z,99.90
2019-05-16T21:43:46.968Z,99.90
2019-05-16T21:46:17.196Z,99.90
2019-05-16T21:48:47.331Z,99.90
2019-05-16T21:51:17.031Z,99.90
2019-05-16T21:53:47.273Z,99.90
2019-05-16T21:56:17.647Z,99.90
2019-05-16T21:58:47.391Z,99.90
2019-05-16T22:01:19.452Z,99.90
2019-05-16T22:03:49.844Z,99.90
2019-05-16T22:06:18.824Z,99.90
2019-05-16T22:08:47.967Z,99.90
2019-05-16T22:11:17.271Z,99.90
2019-05-16T22:13:46.536Z,99.90
2019-05-16T22:16:17.628Z,99.90
2019-05-16T22:18:47.372Z,99.90
2019-05-16T22:21:16.805Z,99.90
2019-05-16T22:23:46.499Z,99.90
2019-05-16T22:26:16.800Z,99.90
2019-05-16T22:28:46.755Z,99.90
2019-05-16T22:31:18.056Z,99.90
2019-05-16T22:33:49.766Z,99.90
2019-05-16T22:36:20.328Z,99.90
2019-05-16T22:38:49.385Z,99.90
2019-05-16T22:41:18.441Z,99.90
2019-05-16T22:43:47.394Z,99.90
2019-05-16T22:46:17.702Z,99.90
2019-05-16T22:48:46.961Z,99.90
2019-05-16T22:51:16.581Z,99.90
2019-05-16T22:53:45.502Z,99.90
2019-05-16T22:56:14.483Z,99.90
2019-05-16T22:58:43.498Z,99.90
2019-05-16T23:01:12.443Z,99.90
2019-05-16T23:03:41.488Z,99.90
2019-05-16T23:06:15.932Z,99.90
2019-05-16T23:08:47.007Z,99.90
2019-05-16T23:11:16.340Z,99.90
2019-05-16T23:13:46.268Z,99.90
2019-05-16T23:16:17.188Z,99.90
2019-05-16T23:18:46.426Z,99.90
2019-05-16T23:21:16.957Z,99.90
2019-05-16T23:23:46.506Z,99.90
2019-05-16T23:26:16.771Z,99.90
2019-05-16T23:28:47.162Z,99.90
2019-05-16T23:31:16.645Z,99.90
2019-05-16T23:33:47.021Z,99.90
2019-05-16T23:36:17.419Z,99.90
2019-05-16T23:38:47.429Z,99.90
2019-05-16T23:41:17.306Z,99.90
2019-05-16T23:43:47.265Z,99.90
2019-05-16T23:46:16.588Z,99.90
2019-05-16T23:48:47.226Z,99.90
2019-05-16T23:51:17.054Z,99.90
2019-05-16T23:53:46.481Z,99.90
2019-05-16T23:56:16.706Z,99.90
2019-05-16T23:58:47.694Z,99.90
